Time;durP1;ratioP1;P1;durP2;ratioP2;P2;SDS_P1;SDS_P2;PMS_P1;PMS_P2;Temp;Humidity;BMP_temperature;BMP_pressure;BME280_temperature;BME280_humidity;BME280_pressure;Samples;Min_cycle;Max_cycle;Signal;HPM_P1;HPM_P2
2023/09/29 00:03:52;;;;;;;28.60;19.38;;;;;;;;;;10464392;28;20201;-77
2023/09/29 00:09:16;;;;;;;38.53;20.10;;;;;;;;;;10476223;28;20235;-77
2023/09/29 00:14:37;;;;;;;24.80;17.95;;;;;;;;;;10443350;28;20458;-76
2023/09/29 00:20:00;;;;;;;24.00;17.45;;;;;;;;;;10476464;28;20280;-76
2023/09/29 00:25:21;;;;;;;26.40;17.27;;;;;;;;;;10470155;28;20189;-77
2023/09/29 00:30:42;;;;;;;24.13;16.60;;;15.60;1.00;;;;;;10455553;28;20451;-76
2023/09/29 00:36:03;;;;;;;26.25;17.65;;;15.70;1.00;;;;;;10483802;28;20257;-77
2023/09/29 00:41:25;;;;;;;25.80;16.48;;;15.70;1.00;;;;;;10464093;28;20203;-77
2023/09/29 00:46:47;;;;;;;20.30;15.05;;;15.60;1.00;;;;;;10497618;28;20292;-77
2023/09/29 00:52:09;;;;;;;22.70;15.70;;;15.60;1.00;;;;;;10454093;28;20526;-76
2023/09/29 00:57:33;;;;;;;29.83;17.23;;;15.50;1.00;;;;;;10442635;28;20209;-77
2023/09/29 01:03:01;;;;;;;22.85;15.50;;;15.50;1.00;;;;;;10445719;28;20233;-77
2023/09/29 01:08:23;;;;;;;24.45;17.48;;;15.40;1.00;;;;;;10439402;28;20256;-75
2023/09/29 01:13:45;;;;;;;23.80;16.60;;;15.40;1.00;;;;;;10444248;28;20239;-75
2023/09/29 01:19:14;;;;;;;27.90;17.52;;;15.20;1.00;;;;;;10439512;28;20405;-78
2023/09/29 01:24:36;;;;;;;26.17;18.80;;;15.20;1.00;;;;;;10439224;28;20223;-76
2023/09/29 01:29:58;;;;;;;30.38;18.15;;;;;;;;;;10442857;28;20198;-76
2023/09/29 01:35:27;;;;;;;22.40;16.30;;;15.10;1.00;;;;;;10462398;28;20199;-76
2023/09/29 01:40:51;;;;;;;28.20;17.05;;;15.10;1.00;;;;;;10464900;28;20203;-77
2023/09/29 01:46:15;;;;;;;23.80;15.45;;;15.20;1.00;;;;;;10454943;28;20192;-77
2023/09/29 01:51:36;;;;;;;31.52;17.85;;;15.20;1.00;;;;;;10446811;28;20229;-77
2023/09/29 01:57:01;;;;;;;29.23;17.60;;;15.20;1.00;;;;;;10475349;28;20234;-77
2023/09/29 02:02:22;;;;;;;29.98;17.98;;;15.10;1.00;;;;;;10452989;28;20236;-76
2023/09/29 02:07:44;;;;;;;27.15;16.50;;;15.10;1.00;;;;;;10430157;28;1300494;-76
2023/09/29 02:13:05;;;;;;;24.42;16.45;;;15.10;1.00;;;;;;10441995;28;20300;-76
2023/09/29 02:18:27;;;;;;;26.20;16.30;;;15.00;1.00;;;;;;10464671;28;20191;-76
2023/09/29 02:23:49;;;;;;;31.20;19.33;;;14.90;1.00;;;;;;10454603;28;20231;-75
2023/09/29 02:29:11;;;;;;;25.05;17.38;;;14.80;1.00;;;;;;10420403;28;20230;-77
2023/09/29 02:34:32;;;;;;;29.95;18.30;;;14.80;1.00;;;;;;10458915;28;20245;-76
2023/09/29 02:39:55;;;;;;;29.42;18.33;;;14.70;37.70;;;;;;10466402;28;20206;-76
2023/09/29 02:45:16;;;;;;;28.75;18.80;;;14.80;1.00;;;;;;10438444;28;20209;-75
2023/09/29 02:50:37;;;;;;;27.52;16.50;;;14.80;1.00;;;;;;10460568;28;20254;-75
2023/09/29 02:55:59;;;;;;;22.80;16.80;;;14.70;1.00;;;;;;10468661;28;20213;-75
2023/09/29 03:01:20;;;;;;;21.92;15.88;;;14.60;1.00;;;;;;10478274;28;20526;-75
2023/09/29 03:06:42;;;;;;;23.60;15.88;;;;;;;;;;10488896;28;20257;-76
2023/09/29 03:12:03;;;;;;;23.13;15.75;;;14.60;1.00;;;;;;10510979;28;20278;-74
2023/09/29 03:17:25;;;;;;;26.13;15.77;;;14.60;1.00;;;;;;10491315;28;20209;-74
2023/09/29 03:22:48;;;;;;;21.27;16.17;;;14.50;1.00;;;;;;10452440;28;20228;-75
2023/09/29 03:28:10;;;;;;;22.50;15.45;;;14.40;1.00;;;;;;10440151;28;20421;-75
2023/09/29 03:33:32;;;;;;;20.13;14.15;;;14.40;99.90;;;;;;10468656;28;20237;-75
2023/09/29 03:38:54;;;;;;;20.85;14.38;;;14.40;99.90;;;;;;10448344;28;20194;-77
2023/09/29 03:44:15;;;;;;;22.92;15.07;;;14.40;1.00;;;;;;10477095;28;20510;-77
2023/09/29 03:49:38;;;;;;;23.25;14.65;;;14.30;99.90;;;;;;10458645;28;20205;-77
2023/09/29 03:54:59;;;;;;;19.85;14.63;;;14.20;99.90;;;;;;10436022;28;20223;-77
2023/09/29 04:00:21;;;;;;;25.63;16.05;;;14.10;99.90;;;;;;10435744;28;20209;-77
2023/09/29 04:05:42;;;;;;;23.50;14.93;;;14.00;1.00;;;;;;10435754;28;20242;-77
2023/09/29 04:11:03;;;;;;;23.67;16.60;;;14.00;1.00;;;;;;10427421;28;20444;-77
2023/09/29 04:16:25;;;;;;;23.92;15.65;;;14.00;35.20;;;;;;10435576;28;20198;-77
2023/09/29 04:21:46;;;;;;;23.30;14.95;;;14.00;1.00;;;;;;10435697;28;20242;-77
2023/09/29 04:27:07;;;;;;;22.20;15.43;;;14.00;1.00;;;;;;10448550;28;20198;-78
2023/09/29 04:32:28;;;;;;;25.38;14.98;;;13.90;1.00;;;;;;10459448;28;20529;-76
2023/09/29 04:37:50;;;;;;;24.40;15.15;;;13.90;1.00;;;;;;10473639;28;21201;-75
2023/09/29 04:43:11;;;;;;;26.92;15.68;;;13.90;1.00;;;;;;10453590;28;20222;-76
2023/09/29 04:48:32;;;;;;;22.35;14.70;;;13.80;1.00;;;;;;10467861;28;20237;-76
2023/09/29 04:53:53;;;;;;;22.38;14.30;;;13.90;1.00;;;;;;10427731;28;20218;-75
2023/09/29 04:59:14;;;;;;;23.80;14.32;;;14.00;1.00;;;;;;10442000;28;20215;-77
2023/09/29 05:04:35;;;;;;;19.42;14.27;;;13.90;21.00;;;;;;10441470;28;20194;-76
2023/09/29 05:09:57;;;;;;;22.90;15.30;;;13.90;82.80;;;;;;10449570;28;20558;-77
2023/09/29 05:15:18;;;;;;;21.00;14.30;;;13.90;1.00;;;;;;10458762;28;20238;-78
2023/09/29 05:20:43;;;;;;;23.23;14.23;;;13.90;73.40;;;;;;10462363;28;20232;-77
2023/09/29 05:26:07;;;;;;;19.50;14.05;;;13.90;1.00;;;;;;10440128;28;20225;-76
2023/09/29 05:31:29;;;;;;;21.30;15.38;;;14.00;1.00;;;;;;10432190;28;20302;-77
2023/09/29 05:36:50;;;;;;;22.15;14.48;;;14.10;1.00;;;;;;10439450;28;20207;-77
2023/09/29 05:42:12;;;;;;;22.52;13.50;;;14.10;1.00;;;;;;10449624;28;20194;-77
2023/09/29 05:47:34;;;;;;;17.70;14.13;;;14.30;1.00;;;;;;10454726;28;20298;-78
2023/09/29 05:52:56;;;;;;;20.35;14.05;;;14.50;99.90;;;;;;10440320;28;20349;-77
2023/09/29 05:58:28;;;;;;;18.77;12.88;;;14.60;1.00;;;;;;10439855;28;20199;-74
2023/09/29 06:03:50;;;;;;;18.92;13.40;;;14.70;99.90;;;;;;10476752;28;20205;-76
2023/09/29 06:09:11;;;;;;;19.15;14.23;;;14.80;99.90;;;;;;10480034;28;20279;-76
2023/09/29 06:14:32;;;;;;;19.38;12.07;;;14.80;99.90;;;;;;10454663;28;20276;-77
2023/09/29 06:19:53;;;;;;;18.42;12.40;;;14.80;99.90;;;;;;10437982;28;20217;-78
2023/09/29 06:25:15;;;;;;;15.13;10.82;;;14.90;99.90;;;;;;10406090;28;20252;-77
2023/09/29 06:30:36;;;;;;;15.35;10.57;;;15.30;24.80;;;;;;10446756;28;20195;-76
2023/09/29 06:35:57;;;;;;;14.38;11.13;;;15.60;1.00;;;;;;10454721;28;20213;-75
2023/09/29 06:41:18;;;;;;;18.38;13.10;;;16.00;1.00;;;;;;10455676;28;20218;-75
2023/09/29 06:46:40;;;;;;;23.77;12.57;;;17.30;1.00;;;;;;10492500;28;20241;-75
2023/09/29 06:52:01;;;;;;;16.13;9.20;;;;;;;;;;10437483;28;20212;-76
2023/09/29 06:57:23;;;;;;;13.57;8.32;;;20.80;99.90;;;;;;10418675;28;20205;-74
2023/09/29 07:02:45;;;;;;;13.35;8.40;;;;;;;;;;10472688;28;20394;-77
2023/09/29 07:08:06;;;;;;;13.95;8.95;;;22.90;99.90;;;;;;10441008;28;20273;-79
2023/09/29 07:13:27;;;;;;;13.50;8.43;;;23.20;99.90;;;;;;10497822;28;20228;-78
2023/09/29 07:18:49;;;;;;;19.80;13.35;;;24.20;99.90;;;;;;10476692;28;20422;-78
2023/09/29 07:24:10;;;;;;;13.35;7.68;;;24.50;99.90;;;;;;10454787;28;20286;-77
2023/09/29 07:29:31;;;;;;;10.95;8.25;;;25.10;1.00;;;;;;10506420;28;20290;-78
2023/09/29 07:34:53;;;;;;;15.00;8.60;;;25.10;1.00;;;;;;10475964;28;20389;-79
2023/09/29 07:40:14;;;;;;;10.40;8.15;;;25.10;99.90;;;;;;10458120;28;20230;-77
2023/09/29 07:45:36;;;;;;;20.25;11.57;;;;;;;;;;10475850;28;20252;-76
2023/09/29 07:50:57;;;;;;;12.32;8.25;;;25.90;1.00;;;;;;10470697;28;20267;-78
2023/09/29 07:56:18;;;;;;;8.77;7.05;;;26.60;99.90;;;;;;10453871;28;20204;-77
2023/09/29 08:01:42;;;;;;;16.92;10.05;;;27.40;99.90;;;;;;10454312;28;20204;-75
2023/09/29 08:07:03;;;;;;;13.65;7.15;;;27.80;99.90;;;;;;10465457;28;20235;-77
2023/09/29 08:12:26;;;;;;;15.07;7.50;;;28.20;99.90;;;;;;10452403;28;20550;-76
2023/09/29 08:17:47;;;;;;;11.30;7.30;;;28.40;99.90;;;;;;10443482;28;20219;-76
2023/09/29 08:23:09;;;;;;;13.68;8.73;;;29.20;99.90;;;;;;10513249;28;20428;-77
2023/09/29 08:28:30;;;;;;;14.52;8.63;;;29.40;99.90;;;;;;10462007;28;20619;-76
2023/09/29 08:33:54;;;;;;;13.43;6.68;;;29.60;99.90;;;;;;10453565;28;20243;-75
2023/09/29 08:39:17;;;;;;;14.68;6.88;;;29.40;99.90;;;;;;10478961;28;20331;-75
2023/09/29 08:44:42;;;;;;;12.30;6.82;;;28.70;99.90;;;;;;10456795;28;20226;-76
2023/09/29 08:50:04;;;;;;;13.73;6.80;;;28.80;99.90;;;;;;10430974;28;20376;-78
2023/09/29 08:55:27;;;;;;;9.68;5.63;;;28.50;99.90;;;;;;10435703;28;20228;-78
2023/09/29 09:00:50;;;;;;;11.57;5.75;;;28.80;99.90;;;;;;10437049;28;20258;-76
2023/09/29 09:06:30;;;;;;;8.43;5.20;;;29.60;99.90;;;;;;10437016;28;20501;-76
2023/09/29 09:11:53;;;;;;;12.32;6.55;;;;;;;;;;10440105;28;20232;-76
2023/09/29 09:17:14;;;;;;;14.10;5.97;;;30.90;99.90;;;;;;10442531;28;20279;-75
2023/09/29 09:22:38;;;;;;;9.02;6.05;;;30.70;99.90;;;;;;10418139;28;20212;-77
2023/09/29 09:28:06;;;;;;;8.52;5.90;;;31.20;99.90;;;;;;10453937;28;20216;-74
2023/09/29 09:33:28;;;;;;;11.85;5.63;;;;;;;;;;10448142;28;20243;-75
2023/09/29 09:38:50;;;;;;;9.20;5.38;;;31.80;97.60;;;;;;10476483;28;20188;-75
2023/09/29 09:44:11;;;;;;;10.52;5.40;;;31.70;99.90;;;;;;10445059;28;20283;-76
2023/09/29 09:49:44;;;;;;;13.85;5.55;;;31.60;99.90;;;;;;10440160;28;20196;-75
2023/09/29 09:55:12;;;;;;;8.13;5.60;;;31.90;99.90;;;;;;10475672;28;20223;-76
2023/09/29 10:00:33;;;;;;;10.10;5.10;;;32.30;99.90;;;;;;10433820;28;20219;-75
2023/09/29 10:05:57;;;;;;;14.18;5.30;;;32.20;99.90;;;;;;10440626;28;20294;-75
2023/09/29 10:11:26;;;;;;;12.93;5.45;;;31.90;99.90;;;;;;10489239;28;20195;-77
2023/09/29 10:16:48;;;;;;;14.00;6.10;;;32.10;99.90;;;;;;10467242;28;20204;-76
2023/09/29 10:22:09;;;;;;;9.80;5.28;;;32.40;99.50;;;;;;10474481;28;20208;-75
2023/09/29 10:27:33;;;;;;;15.70;6.15;;;32.20;98.50;;;;;;10465706;28;20208;-77
2023/09/29 10:33:06;;;;;;;13.75;5.03;;;32.00;98.20;;;;;;10468542;28;20251;-75
2023/09/29 10:38:49;;;;;;;10.55;5.15;;;32.10;97.30;;;;;;10436278;28;20208;-76
2023/09/29 10:44:14;;;;;;;11.63;5.00;;;32.30;96.90;;;;;;10432833;28;20226;-80
2023/09/29 10:49:36;;;;;;;11.95;5.07;;;31.80;96.20;;;;;;10450476;28;20292;-77
2023/09/29 10:54:59;;;;;;;11.20;6.28;;;31.80;95.80;;;;;;10449033;28;20294;-76
2023/09/29 11:00:20;;;;;;;11.60;4.57;;;31.80;99.90;;;;;;10473400;28;20195;-75
2023/09/29 11:05:58;;;;;;;7.40;4.78;;;31.90;94.50;;;;;;10473891;28;20246;-75
2023/09/29 11:11:20;;;;;;;10.90;4.53;;;32.10;94.10;;;;;;10451198;28;20207;-77
2023/09/29 11:23:28;;;;;;;8.90;4.30;;;31.40;93.10;;;;;;10435185;28;20253;-75
2023/09/29 11:28:51;;;;;;;8.77;5.35;;;31.00;92.80;;;;;;10429705;28;20474;-74
2023/09/29 11:34:15;;;;;;;7.30;4.93;;;30.60;92.30;;;;;;10432029;28;20254;-75
2023/09/29 11:39:36;;;;;;;12.85;5.47;;;30.10;92.30;;;;;;10434458;28;20249;-74
2023/09/29 11:44:57;;;;;;;19.05;5.60;;;29.60;92.40;;;;;;10430783;28;20238;-76
2023/09/29 11:50:18;;;;;;;8.70;4.97;;;28.80;91.90;;;;;;10430537;28;20497;-75
2023/09/29 11:55:39;;;;;;;16.95;7.30;;;28.40;92.70;;;;;;10430005;28;20235;-74
2023/09/29 12:01:02;;;;;;;12.30;6.88;;;28.30;93.40;;;;;;10470580;28;20266;-74
2023/09/29 12:06:24;;;;;;;10.35;6.07;;;28.00;93.50;;;;;;10479540;28;20240;-74
2023/09/29 12:11:46;;;;;;;9.90;5.43;;;27.80;93.60;;;;;;10449122;28;20223;-74
2023/09/29 12:24:08;;;;;;;8.30;5.55;;;27.50;94.90;;;;;;10438086;28;20200;-76
2023/09/29 12:30:18;;;;;;;14.30;5.85;;;27.50;94.90;;;;;;10448247;28;20612;-74
2023/09/29 12:35:40;;;;;;;8.55;5.68;;;27.20;95.50;;;;;;10448956;28;20307;-74
2023/09/29 12:41:01;;;;;;;10.00;4.85;;;27.10;95.60;;;;;;10437202;28;20220;-76
2023/09/29 12:46:22;;;;;;;9.25;4.03;;;27.10;95.70;;;;;;10437268;28;20303;-75
2023/09/29 12:51:43;;;;;;;11.88;4.15;;;26.90;95.20;;;;;;10437115;28;20279;-78
2023/09/29 12:57:13;;;;;;;7.78;4.38;;;26.60;95.00;;;;;;10435833;28;20212;-78
2023/09/29 13:02:34;;;;;;;14.00;10.52;;;26.40;95.00;;;;;;10436863;28;20196;-78
2023/09/29 13:07:56;;;;;;;8.93;5.50;;;26.30;95.60;;;;;;10467160;28;20554;-79
2023/09/29 13:13:17;;;;;;;8.73;4.25;;;26.30;95.40;;;;;;10475277;28;20231;-77
2023/09/29 13:18:39;;;;;;;7.28;4.60;;;26.10;95.20;;;;;;10471086;28;20230;-76
2023/09/29 13:24:01;;;;;;;16.05;8.02;;;26.00;95.80;;;;;;10518302;28;20643;-76
2023/09/29 13:29:22;;;;;;;14.35;6.30;;;25.90;97.00;;;;;;10435719;28;20385;-78
2023/09/29 13:34:42;;;;;;;13.88;6.50;;;25.70;97.70;;;;;;10442157;28;20232;-77
2023/09/29 13:40:05;;;;;;;7.60;5.40;;;25.60;98.70;;;;;;10434974;28;20273;-78
2023/09/29 13:45:27;;;;;;;11.27;6.07;;;25.50;99.90;;;;;;10435405;28;20212;-77
2023/09/29 13:50:49;;;;;;;15.98;6.85;;;25.40;99.90;;;;;;10438094;28;20393;-77
2023/09/29 13:56:10;;;;;;;9.15;5.78;;;25.30;99.90;;;;;;10433677;28;20227;-77
2023/09/29 14:01:31;;;;;;;9.02;5.88;;;25.20;99.90;;;;;;10418115;28;20212;-78
2023/09/29 14:06:54;;;;;;;12.05;7.13;;;25.10;99.90;;;;;;10444808;28;20236;-79
2023/09/29 14:12:16;;;;;;;13.45;7.25;;;25.00;99.90;;;;;;10471259;28;20224;-78
2023/09/29 14:17:37;;;;;;;10.70;6.75;;;24.90;99.90;;;;;;10457287;28;20456;-78
2023/09/29 14:22:58;;;;;;;12.27;6.50;;;24.70;99.90;;;;;;10515597;28;20187;-78
2023/09/29 14:28:20;;;;;;;9.80;6.68;;;24.60;99.90;;;;;;10462049;28;20200;-78
2023/09/29 14:40:52;;;;;;;9.10;6.00;;;24.50;99.90;;;;;;10470999;28;20529;-78
2023/09/29 14:46:16;;;;;;;13.65;6.68;;;24.60;99.90;;;;;;10456986;28;20203;-77
2023/09/29 14:51:37;;;;;;;17.13;7.03;;;24.30;99.90;;;;;;10451167;28;20584;-79
2023/09/29 14:56:59;;;;;;;9.95;6.40;;;24.20;99.90;;;;;;10457913;28;20241;-81
2023/09/29 15:02:20;;;;;;;12.35;6.70;;;24.20;99.90;;;;;;10420384;28;20250;-77
2023/09/29 15:07:41;;;;;;;15.02;7.85;;;24.10;99.90;;;;;;10425869;28;20239;-78
2023/09/29 15:13:03;;;;;;;14.25;7.57;;;24.00;99.90;;;;;;10477370;28;20414;-77
2023/09/29 15:18:25;;;;;;;10.10;7.05;;;23.90;99.90;;;;;;10468076;28;20227;-75
2023/09/29 15:23:55;;;;;;;12.50;6.97;;;23.80;99.90;;;;;;10449694;28;20522;-75
2023/09/29 15:29:19;;;;;;;8.50;6.35;;;23.70;99.90;;;;;;10469322;28;20250;-75
2023/09/29 15:34:40;;;;;;;10.07;6.03;;;23.60;1.00;;;;;;10462459;28;20223;-77
2023/09/29 15:40:01;;;;;;;13.48;6.63;;;23.60;99.90;;;;;;10492514;28;20282;-77
2023/09/29 15:45:22;;;;;;;16.60;6.28;;;23.30;99.90;;;;;;10460001;28;20204;-77
2023/09/29 15:50:44;;;;;;;8.63;6.10;;;23.20;99.90;;;;;;10476096;28;20419;-77
2023/09/29 15:56:06;;;;;;;10.77;8.38;;;23.20;99.90;;;;;;10477467;28;20529;-77
2023/09/29 16:01:27;;;;;;;13.57;9.65;;;23.10;99.90;;;;;;10476358;28;20207;-75
2023/09/29 16:06:48;;;;;;;12.00;9.50;;;23.00;99.90;;;;;;10477033;28;20278;-75
2023/09/29 16:12:09;;;;;;;10.68;8.50;;;22.90;99.90;;;;;;10472647;28;20202;-75
2023/09/29 16:17:33;;;;;;;13.27;9.75;;;22.80;99.90;;;;;;10469898;28;20216;-75
2023/09/29 16:22:54;;;;;;;19.60;15.07;;;22.70;99.90;;;;;;10476773;28;20201;-76
2023/09/29 16:28:15;;;;;;;23.77;17.95;;;22.60;99.90;;;;;;10474819;28;20200;-75
2023/09/29 16:33:35;;;;;;;24.77;16.70;;;22.50;99.90;;;;;;10475330;28;20224;-75
2023/09/29 16:38:57;;;;;;;18.95;14.93;;;;;;;;;;10475242;28;20192;-75
2023/09/29 16:44:18;;;;;;;35.42;21.85;;;22.40;99.90;;;;;;10476892;28;20192;-75
2023/09/29 16:49:40;;;;;;;49.97;29.95;;;;;;;;;;10481406;28;20210;-75
2023/09/29 16:55:01;;;;;;;55.95;29.38;;;22.10;1.00;;;;;;10484106;28;20219;-75
2023/09/29 17:00:22;;;;;;;44.22;24.10;;;22.00;1.00;;;;;;10482195;28;20214;-74
2023/09/29 17:05:43;;;;;;;34.75;21.27;;;21.80;1.00;;;;;;10483608;28;20227;-75
2023/09/29 17:11:24;;;;;;;44.13;24.40;;;21.80;99.90;;;;;;10483390;28;20208;-75
2023/09/29 17:16:46;;;;;;;46.67;25.98;;;21.80;1.00;;;;;;10479665;28;20212;-75
2023/09/29 17:22:08;;;;;;;41.10;20.45;;;21.60;99.90;;;;;;10478811;28;20278;-75
2023/09/29 17:27:30;;;;;;;25.17;15.73;;;21.50;99.90;;;;;;10483808;28;20246;-76
2023/09/29 17:32:51;;;;;;;18.95;14.25;;;21.50;1.00;;;;;;10481919;28;20219;-75
2023/09/29 17:38:13;;;;;;;18.30;13.43;;;21.30;1.00;;;;;;10459770;28;20249;-75
2023/09/29 17:43:34;;;;;;;16.67;12.35;;;21.40;1.00;;;;;;10482486;28;20384;-74
2023/09/29 17:48:57;;;;;;;22.52;13.98;;;21.20;99.90;;;;;;10479366;28;20439;-76
2023/09/29 17:54:18;;;;;;;22.67;14.05;;;21.20;1.00;;;;;;10473607;28;20229;-75
2023/09/29 17:59:39;;;;;;;19.45;12.30;;;21.00;99.90;;;;;;10481300;28;20192;-75
2023/09/29 18:05:00;;;;;;;13.40;11.50;;;20.90;1.00;;;;;;10478658;28;20227;-77
2023/09/29 18:10:21;;;;;;;21.83;12.38;;;20.80;99.90;;;;;;10395643;28;20365;-76
2023/09/29 18:15:43;;;;;;;13.82;10.27;;;20.70;99.90;;;;;;10396450;28;20213;-77
2023/09/29 18:21:05;;;;;;;19.58;11.65;;;20.80;1.00;;;;;;10385756;28;20252;-77
2023/09/29 18:26:26;;;;;;;24.95;12.43;;;20.60;1.00;;;;;;10389912;28;20200;-77
2023/09/29 18:31:48;;;;;;;16.77;10.18;;;20.40;1.00;;;;;;10413274;28;20197;-76
2023/09/29 18:37:09;;;;;;;18.90;10.82;;;20.40;99.90;;;;;;10396337;28;20227;-77
2023/09/29 18:42:30;;;;;;;25.77;15.88;;;20.40;1.00;;;;;;10394399;28;20205;-77
2023/09/29 18:47:52;;;;;;;18.88;13.02;;;20.30;99.90;;;;;;10394938;28;20272;-78
2023/09/29 18:53:13;;;;;;;13.73;11.77;;;;;;;;;;10395184;28;20412;-77
2023/09/29 18:58:34;;;;;;;13.18;11.23;;;20.10;99.90;;;;;;10394221;28;20197;-77
2023/09/29 19:03:55;;;;;;;15.57;12.68;;;20.10;99.90;;;;;;10393652;28;20204;-77
2023/09/29 19:09:18;;;;;;;16.33;11.48;;;20.00;24.90;;;;;;10457887;28;20227;-77
2023/09/29 19:14:39;;;;;;;15.40;11.82;;;20.00;1.00;;;;;;10491663;28;20231;-74
2023/09/29 19:20:02;;;;;;;14.35;10.50;;;19.90;1.00;;;;;;10494199;28;20219;-76
2023/09/29 19:25:23;;;;;;;15.07;10.52;;;19.90;99.90;;;;;;10478266;28;20215;-75
2023/09/29 19:30:44;;;;;;;14.52;11.63;;;19.90;99.90;;;;;;10470511;28;20200;-75
2023/09/29 19:36:05;;;;;;;15.95;11.02;;;19.80;99.90;;;;;;10477473;28;20242;-75
2023/09/29 19:41:29;;;;;;;16.52;10.93;;;19.80;99.90;;;;;;10476222;28;20206;-74
2023/09/29 19:46:51;;;;;;;15.02;11.43;;;19.70;1.00;;;;;;10491996;28;20541;-75
2023/09/29 19:52:12;;;;;;;12.77;9.82;;;19.70;99.90;;;;;;10462225;28;20277;-76
2023/09/29 19:57:33;;;;;;;15.02;10.85;;;19.70;1.00;;;;;;10477260;28;20199;-75
2023/09/29 20:02:54;;;;;;;15.75;11.05;;;19.60;1.00;;;;;;10474565;28;20241;-77
2023/09/29 20:08:15;;;;;;;13.80;11.27;;;19.60;7.50;;;;;;10440541;28;20293;-76
2023/09/29 20:13:40;;;;;;;14.07;11.05;;;19.60;99.90;;;;;;10475653;28;20243;-77
2023/09/29 20:19:01;;;;;;;15.10;11.20;;;19.50;99.90;;;;;;10475714;28;20275;-77
2023/09/29 20:24:22;;;;;;;17.95;10.63;;;19.50;99.90;;;;;;10469862;28;20389;-77
2023/09/29 20:29:44;;;;;;;14.05;11.40;;;19.40;1.00;;;;;;10484667;28;20188;-77
2023/09/29 20:35:05;;;;;;;15.05;10.52;;;19.40;1.00;;;;;;10475605;28;20278;-77
2023/09/29 20:40:27;;;;;;;11.80;9.88;;;19.40;1.00;;;;;;10462533;28;20194;-77
2023/09/29 20:45:48;;;;;;;13.43;10.60;;;19.40;1.00;;;;;;10472203;28;20192;-77
2023/09/29 20:51:11;;;;;;;12.88;9.63;;;19.30;81.10;;;;;;10483776;28;20418;-77
2023/09/29 20:56:35;;;;;;;16.52;11.63;;;19.30;1.00;;;;;;10482434;28;20227;-77
2023/09/29 21:01:56;;;;;;;13.80;11.13;;;19.20;99.90;;;;;;10482903;28;20252;-77
2023/09/29 21:07:17;;;;;;;15.65;11.02;;;19.20;1.00;;;;;;10480802;28;20483;-76
2023/09/29 21:23:17;;;;;;;14.88;11.27;;;19.10;1.00;;;;;;10460682;28;20211;-77
2023/09/29 21:28:40;;;;;;;15.73;11.68;;;19.10;1.00;;;;;;10472796;28;20192;-77
2023/09/29 21:34:01;;;;;;;14.38;11.55;;;19.00;1.00;;;;;;10476153;28;20223;-77
2023/09/29 21:39:22;;;;;;;13.02;11.05;;;19.00;99.90;;;;;;10481985;28;20200;-77
2023/09/29 21:44:44;;;;;;;13.88;10.80;;;19.00;1.00;;;;;;10481904;28;20203;-77
2023/09/29 21:50:05;;;;;;;15.95;11.50;;;19.00;1.00;;;;;;10481397;28;20245;-77
2023/09/29 21:55:26;;;;;;;17.98;12.02;;;19.10;1.00;;;;;;10481692;28;20246;-77
2023/09/29 22:00:52;;;;;;;15.93;11.55;;;19.10;1.00;;;;;;10475545;28;20196;-76
2023/09/29 22:06:13;;;;;;;12.95;11.48;;;19.10;1.00;;;;;;10478800;28;20254;-77
2023/09/29 22:11:36;;;;;;;11.75;10.50;;;19.10;1.00;;;;;;10480083;28;20200;-76
2023/09/29 22:16:58;;;;;;;14.77;10.85;;;19.10;99.90;;;;;;10479805;28;20230;-77
2023/09/29 22:22:19;;;;;;;11.32;10.13;;;19.10;1.00;;;;;;10445049;28;20502;-76
2023/09/29 22:27:41;;;;;;;11.80;10.52;;;19.00;1.00;;;;;;10467820;28;20233;-77
2023/09/29 22:33:02;;;;;;;12.15;10.65;;;19.00;99.90;;;;;;10479006;28;20307;-77
2023/09/29 22:38:24;;;;;;;18.88;12.35;;;18.90;99.90;;;;;;10471723;28;20196;-76
2023/09/29 22:43:46;;;;;;;14.50;11.13;;;18.90;1.00;;;;;;10487000;28;20275;-77
2023/09/29 22:49:08;;;;;;;13.73;10.68;;;18.90;99.90;;;;;;10480001;28;20211;-76
2023/09/29 22:54:30;;;;;;;11.63;10.43;;;18.90;99.90;;;;;;10478751;28;20229;-76
2023/09/29 22:59:52;;;;;;;13.70;11.93;;;18.90;99.90;;;;;;10464918;28;20495;-76
2023/09/29 23:05:15;;;;;;;12.48;11.18;;;18.80;99.90;;;;;;10425357;28;20446;-75
2023/09/29 23:10:36;;;;;;;18.92;13.65;;;18.80;99.90;;;;;;10441728;28;20409;-76
2023/09/29 23:15:58;;;;;;;15.30;12.75;;;18.90;12.60;;;;;;10478809;28;20222;-75
2023/09/29 23:21:19;;;;;;;12.68;10.65;;;18.80;1.00;;;;;;10477646;28;20205;-76
2023/09/29 23:26:41;;;;;;;11.68;10.15;;;18.90;1.00;;;;;;10478462;28;20253;-76
2023/09/29 23:32:02;;;;;;;12.57;10.18;;;18.90;1.00;;;;;;10490730;28;20429;-76
2023/09/29 23:37:23;;;;;;;10.65;9.55;;;18.90;1.00;;;;;;10460143;28;20231;-76
2023/09/29 23:42:45;;;;;;;13.00;11.52;;;18.90;1.00;;;;;;10477148;28;20200;-77
2023/09/29 23:48:06;;;;;;;14.57;10.73;;;18.80;1.00;;;;;;10477851;28;20191;-76
2023/09/29 23:53:28;;;;;;;14.13;10.65;;;18.80;99.90;;;;;;10475886;28;20525;-76
2023/09/29 23:58:49;;;;;;;12.55;11.10;;;18.80;99.90;;;;;;10477994;28;20271;-76
